sensor_id;sensor_type;location;lat;lon;timestamp;P1;durP1;ratioP1;P2;durP2;ratioP2
25045;SDS011;13044;49.304;12.840;2024-03-08T00:02:24;28.13;;;18.23;;
25045;SDS011;13044;49.304;12.840;2024-03-08T00:04:51;31.80;;;18.02;;
25045;SDS011;13044;49.304;12.840;2024-03-08T00:07:18;31.10;;;18.90;;
25045;SDS011;13044;49.304;12.840;2024-03-08T00:09:45;31.00;;;18.60;;
25045;SDS011;13044;49.304;12.840;2024-03-08T00:12:12;28.75;;;18.25;;
25045;SDS011;13044;49.304;12.840;2024-03-08T00:14:39;33.22;;;19.90;;
25045;SDS011;13044;49.304;12.840;2024-03-08T00:17:06;31.35;;;18.88;;
25045;SDS011;13044;49.304;12.840;2024-03-08T00:19:33;30.10;;;19.30;;
25045;SDS011;13044;49.304;12.840;2024-03-08T00:22:00;28.63;;;18.58;;
25045;SDS011;13044;49.304;12.840;2024-03-08T00:24:26;30.48;;;18.67;;
25045;SDS011;13044;49.304;12.840;2024-03-08T00:26:55;27.92;;;17.45;;
25045;SDS011;13044;49.304;12.840;2024-03-08T00:29:22;28.85;;;17.27;;
25045;SDS011;13044;49.304;12.840;2024-03-08T00:31:48;31.23;;;19.20;;
25045;SDS011;13044;49.304;12.840;2024-03-08T00:34:16;31.27;;;19.20;;
25045;SDS011;13044;49.304;12.840;2024-03-08T00:36:43;32.35;;;18.75;;
25045;SDS011;13044;49.304;12.840;2024-03-08T00:39:10;31.52;;;17.92;;
25045;SDS011;13044;49.304;12.840;2024-03-08T00:41:38;30.73;;;19.40;;
25045;SDS011;13044;49.304;12.840;2024-03-08T00:44:05;29.48;;;18.95;;
25045;SDS011;13044;49.304;12.840;2024-03-08T00:46:32;29.85;;;17.98;;
25045;SDS011;13044;49.304;12.840;2024-03-08T00:49:00;30.67;;;19.60;;
25045;SDS011;13044;49.304;12.840;2024-03-08T00:51:27;31.20;;;19.60;;
25045;SDS011;13044;49.304;12.840;2024-03-08T00:53:54;33.03;;;20.02;;
25045;SDS011;13044;49.304;12.840;2024-03-08T00:56:21;28.63;;;18.40;;
25045;SDS011;13044;49.304;12.840;2024-03-08T00:58:48;33.85;;;19.80;;
25045;SDS011;13044;49.304;12.840;2024-03-08T01:01:15;34.72;;;19.90;;
25045;SDS011;13044;49.304;12.840;2024-03-08T01:03:42;32.72;;;18.92;;
25045;SDS011;13044;49.304;12.840;2024-03-08T01:06:09;29.27;;;18.30;;
25045;SDS011;13044;49.304;12.840;2024-03-08T01:08:38;27.90;;;18.50;;
25045;SDS011;13044;49.304;12.840;2024-03-08T01:11:07;32.85;;;19.15;;
25045;SDS011;13044;49.304;12.840;2024-03-08T01:13:35;30.55;;;18.92;;
25045;SDS011;13044;49.304;12.840;2024-03-08T01:16:02;29.60;;;18.50;;
25045;SDS011;13044;49.304;12.840;2024-03-08T01:18:29;32.25;;;20.15;;
25045;SDS011;13044;49.304;12.840;2024-03-08T01:20:57;32.13;;;19.27;;
25045;SDS011;13044;49.304;12.840;2024-03-08T01:23:23;32.38;;;20.20;;
25045;SDS011;13044;49.304;12.840;2024-03-08T01:25:50;33.03;;;20.13;;
25045;SDS011;13044;49.304;12.840;2024-03-08T01:28:23;33.33;;;20.13;;
25045;SDS011;13044;49.304;12.840;2024-03-08T01:30:51;32.38;;;20.23;;
25045;SDS011;13044;49.304;12.840;2024-03-08T01:33:25;33.10;;;18.77;;
25045;SDS011;13044;49.304;12.840;2024-03-08T01:35:53;32.58;;;20.52;;
25045;SDS011;13044;49.304;12.840;2024-03-08T01:38:20;36.95;;;21.67;;
25045;SDS011;13044;49.304;12.840;2024-03-08T01:40:47;35.72;;;20.90;;
25045;SDS011;13044;49.304;12.840;2024-03-08T01:43:27;31.92;;;20.15;;
25045;SDS011;13044;49.304;12.840;2024-03-08T01:45:56;36.83;;;19.90;;
25045;SDS011;13044;49.304;12.840;2024-03-08T01:48:26;32.55;;;19.83;;
25045;SDS011;13044;49.304;12.840;2024-03-08T01:50:58;32.53;;;20.10;;
25045;SDS011;13044;49.304;12.840;2024-03-08T01:53:26;34.53;;;20.77;;
25045;SDS011;13044;49.304;12.840;2024-03-08T01:55:56;33.05;;;20.10;;
25045;SDS011;13044;49.304;12.840;2024-03-08T01:58:24;30.70;;;20.10;;
25045;SDS011;13044;49.304;12.840;2024-03-08T02:00:59;33.95;;;21.05;;
25045;SDS011;13044;49.304;12.840;2024-03-08T02:03:26;30.98;;;19.27;;
25045;SDS011;13044;49.304;12.840;2024-03-08T02:05:53;35.60;;;21.77;;
25045;SDS011;13044;49.304;12.840;2024-03-08T02:08:21;33.35;;;21.08;;
25045;SDS011;13044;49.304;12.840;2024-03-08T02:10:49;34.75;;;21.80;;
25045;SDS011;13044;49.304;12.840;2024-03-08T02:13:17;33.80;;;21.70;;
25045;SDS011;13044;49.304;12.840;2024-03-08T02:15:49;34.53;;;21.00;;
25045;SDS011;13044;49.304;12.840;2024-03-08T02:18:20;33.88;;;21.63;;
25045;SDS011;13044;49.304;12.840;2024-03-08T02:20:53;33.83;;;21.67;;
25045;SDS011;13044;49.304;12.840;2024-03-08T02:23:24;33.83;;;21.85;;
25045;SDS011;13044;49.304;12.840;2024-03-08T02:25:52;32.72;;;21.50;;
25045;SDS011;13044;49.304;12.840;2024-03-08T02:28:21;37.03;;;22.02;;
25045;SDS011;13044;49.304;12.840;2024-03-08T02:30:51;35.47;;;21.52;;
25045;SDS011;13044;49.304;12.840;2024-03-08T02:33:25;37.75;;;22.55;;
25045;SDS011;13044;49.304;12.840;2024-03-08T02:35:54;37.03;;;22.75;;
25045;SDS011;13044;49.304;12.840;2024-03-08T02:38:22;37.65;;;22.55;;
25045;SDS011;13044;49.304;12.840;2024-03-08T02:40:51;39.45;;;23.40;;
25045;SDS011;13044;49.304;12.840;2024-03-08T02:43:19;38.03;;;22.55;;
25045;SDS011;13044;49.304;12.840;2024-03-08T02:45:51;39.17;;;24.20;;
25045;SDS011;13044;49.304;12.840;2024-03-08T02:48:21;36.75;;;22.83;;
25045;SDS011;13044;49.304;12.840;2024-03-08T02:50:49;37.42;;;22.70;;
25045;SDS011;13044;49.304;12.840;2024-03-08T02:53:18;42.08;;;24.48;;
25045;SDS011;13044;49.304;12.840;2024-03-08T02:55:48;37.60;;;23.48;;
25045;SDS011;13044;49.304;12.840;2024-03-08T02:58:15;39.30;;;24.25;;
25045;SDS011;13044;49.304;12.840;2024-03-08T03:00:42;38.13;;;23.63;;
25045;SDS011;13044;49.304;12.840;2024-03-08T03:03:10;46.22;;;25.50;;
25045;SDS011;13044;49.304;12.840;2024-03-08T03:05:37;45.67;;;24.23;;
25045;SDS011;13044;49.304;12.840;2024-03-08T03:08:04;42.13;;;25.25;;
25045;SDS011;13044;49.304;12.840;2024-03-08T03:10:36;41.17;;;24.92;;
25045;SDS011;13044;49.304;12.840;2024-03-08T03:13:03;42.88;;;24.67;;
25045;SDS011;13044;49.304;12.840;2024-03-08T03:15:35;43.97;;;25.40;;
25045;SDS011;13044;49.304;12.840;2024-03-08T03:18:02;41.58;;;24.40;;
25045;SDS011;13044;49.304;12.840;2024-03-08T03:20:30;40.17;;;24.13;;
25045;SDS011;13044;49.304;12.840;2024-03-08T03:23:03;43.95;;;26.08;;
25045;SDS011;13044;49.304;12.840;2024-03-08T03:25:30;44.63;;;24.88;;
25045;SDS011;13044;49.304;12.840;2024-03-08T03:28:02;48.50;;;26.85;;
25045;SDS011;13044;49.304;12.840;2024-03-08T03:30:30;45.40;;;26.63;;
25045;SDS011;13044;49.304;12.840;2024-03-08T03:33:00;55.63;;;25.77;;
25045;SDS011;13044;49.304;12.840;2024-03-08T03:35:28;45.28;;;26.27;;
25045;SDS011;13044;49.304;12.840;2024-03-08T03:37:55;46.40;;;25.85;;
25045;SDS011;13044;49.304;12.840;2024-03-08T03:40:32;48.80;;;26.13;;
25045;SDS011;13044;49.304;12.840;2024-03-08T03:43:00;47.28;;;27.33;;
25045;SDS011;13044;49.304;12.840;2024-03-08T03:45:29;46.63;;;26.15;;
25045;SDS011;13044;49.304;12.840;2024-03-08T03:48:00;49.70;;;26.92;;
25045;SDS011;13044;49.304;12.840;2024-03-08T03:50:33;45.03;;;25.70;;
25045;SDS011;13044;49.304;12.840;2024-03-08T03:53:02;42.88;;;24.73;;
25045;SDS011;13044;49.304;12.840;2024-03-08T03:55:30;45.05;;;25.35;;
25045;SDS011;13044;49.304;12.840;2024-03-08T03:57:57;39.25;;;22.45;;
25045;SDS011;13044;49.304;12.840;2024-03-08T04:00:25;38.88;;;23.05;;
25045;SDS011;13044;49.304;12.840;2024-03-08T04:02:53;44.13;;;24.90;;
25045;SDS011;13044;49.304;12.840;2024-03-08T04:05:21;41.42;;;23.98;;
25045;SDS011;13044;49.304;12.840;2024-03-08T04:07:48;46.38;;;24.95;;
25045;SDS011;13044;49.304;12.840;2024-03-08T04:10:15;46.85;;;25.95;;
25045;SDS011;13044;49.304;12.840;2024-03-08T04:12:42;41.03;;;23.55;;
25045;SDS011;13044;49.304;12.840;2024-03-08T04:15:09;43.88;;;25.38;;
25045;SDS011;13044;49.304;12.840;2024-03-08T04:17:37;46.42;;;25.67;;
25045;SDS011;13044;49.304;12.840;2024-03-08T04:20:04;48.95;;;24.60;;
25045;SDS011;13044;49.304;12.840;2024-03-08T04:22:36;42.72;;;23.67;;
25045;SDS011;13044;49.304;12.840;2024-03-08T04:25:04;43.03;;;24.08;;
25045;SDS011;13044;49.304;12.840;2024-03-08T04:27:32;42.85;;;25.15;;
25045;SDS011;13044;49.304;12.840;2024-03-08T04:30:00;42.55;;;24.17;;
25045;SDS011;13044;49.304;12.840;2024-03-08T04:32:34;39.85;;;24.13;;
25045;SDS011;13044;49.304;12.840;2024-03-08T04:35:01;39.30;;;22.88;;
25045;SDS011;13044;49.304;12.840;2024-03-08T04:37:29;43.97;;;24.02;;
25045;SDS011;13044;49.304;12.840;2024-03-08T04:39:56;45.38;;;23.55;;
25045;SDS011;13044;49.304;12.840;2024-03-08T04:42:24;43.42;;;24.67;;
25045;SDS011;13044;49.304;12.840;2024-03-08T04:44:53;42.65;;;24.33;;
25045;SDS011;13044;49.304;12.840;2024-03-08T04:47:20;40.35;;;23.90;;
25045;SDS011;13044;49.304;12.840;2024-03-08T04:49:47;43.53;;;24.02;;
25045;SDS011;13044;49.304;12.840;2024-03-08T04:52:14;44.50;;;24.15;;
25045;SDS011;13044;49.304;12.840;2024-03-08T04:54:41;44.58;;;24.92;;
25045;SDS011;13044;49.304;12.840;2024-03-08T04:57:09;44.35;;;25.40;;
25045;SDS011;13044;49.304;12.840;2024-03-08T04:59:37;46.85;;;26.50;;
25045;SDS011;13044;49.304;12.840;2024-03-08T05:02:03;46.60;;;25.73;;
25045;SDS011;13044;49.304;12.840;2024-03-08T05:04:30;46.03;;;25.90;;
25045;SDS011;13044;49.304;12.840;2024-03-08T05:06:57;49.58;;;26.00;;
25045;SDS011;13044;49.304;12.840;2024-03-08T05:09:27;46.63;;;25.45;;
25045;SDS011;13044;49.304;12.840;2024-03-08T05:11:55;42.05;;;24.25;;
25045;SDS011;13044;49.304;12.840;2024-03-08T05:14:24;45.40;;;25.40;;
25045;SDS011;13044;49.304;12.840;2024-03-08T05:16:52;50.05;;;25.90;;
25045;SDS011;13044;49.304;12.840;2024-03-08T05:19:19;49.60;;;26.00;;
25045;SDS011;13044;49.304;12.840;2024-03-08T05:21:47;52.80;;;28.20;;
25045;SDS011;13044;49.304;12.840;2024-03-08T05:24:16;47.33;;;27.20;;
25045;SDS011;13044;49.304;12.840;2024-03-08T05:26:44;49.53;;;26.13;;
25045;SDS011;13044;49.304;12.840;2024-03-08T05:29:12;50.25;;;26.83;;
25045;SDS011;13044;49.304;12.840;2024-03-08T05:31:47;48.25;;;25.95;;
25045;SDS011;13044;49.304;12.840;2024-03-08T05:34:16;50.10;;;26.30;;
25045;SDS011;13044;49.304;12.840;2024-03-08T05:36:43;49.70;;;26.88;;
25045;SDS011;13044;49.304;12.840;2024-03-08T05:39:11;50.63;;;26.80;;
25045;SDS011;13044;49.304;12.840;2024-03-08T05:41:39;48.50;;;25.45;;
25045;SDS011;13044;49.304;12.840;2024-03-08T05:44:07;45.88;;;25.35;;
25045;SDS011;13044;49.304;12.840;2024-03-08T05:46:34;51.38;;;26.75;;
25045;SDS011;13044;49.304;12.840;2024-03-08T05:49:06;47.38;;;24.88;;
25045;SDS011;13044;49.304;12.840;2024-03-08T05:51:34;48.63;;;26.23;;
25045;SDS011;13044;49.304;12.840;2024-03-08T05:54:06;49.42;;;25.08;;
25045;SDS011;13044;49.304;12.840;2024-03-08T05:56:40;46.83;;;25.23;;
25045;SDS011;13044;49.304;12.840;2024-03-08T05:59:08;53.90;;;26.65;;
25045;SDS011;13044;49.304;12.840;2024-03-08T06:01:36;46.83;;;25.70;;
25045;SDS011;13044;49.304;12.840;2024-03-08T06:04:04;45.97;;;25.42;;
25045;SDS011;13044;49.304;12.840;2024-03-08T06:06:31;49.00;;;26.88;;
25045;SDS011;13044;49.304;12.840;2024-03-08T06:08:58;53.08;;;26.98;;
25045;SDS011;13044;49.304;12.840;2024-03-08T06:11:25;49.70;;;27.17;;
25045;SDS011;13044;49.304;12.840;2024-03-08T06:13:58;50.55;;;27.42;;
25045;SDS011;13044;49.304;12.840;2024-03-08T06:16:26;48.95;;;27.42;;
25045;SDS011;13044;49.304;12.840;2024-03-08T06:18:56;52.25;;;27.75;;
25045;SDS011;13044;49.304;12.840;2024-03-08T06:21:27;52.72;;;27.55;;
25045;SDS011;13044;49.304;12.840;2024-03-08T06:23:54;51.13;;;26.75;;
25045;SDS011;13044;49.304;12.840;2024-03-08T06:26:21;51.70;;;25.25;;
25045;SDS011;13044;49.304;12.840;2024-03-08T06:28:48;53.10;;;27.95;;
25045;SDS011;13044;49.304;12.840;2024-03-08T06:31:15;48.80;;;26.60;;
25045;SDS011;13044;49.304;12.840;2024-03-08T06:33:43;49.72;;;27.65;;
25045;SDS011;13044;49.304;12.840;2024-03-08T06:36:10;54.67;;;28.70;;
25045;SDS011;13044;49.304;12.840;2024-03-08T06:38:38;52.22;;;28.40;;
25045;SDS011;13044;49.304;12.840;2024-03-08T06:41:09;49.55;;;28.35;;
25045;SDS011;13044;49.304;12.840;2024-03-08T06:43:42;55.00;;;28.60;;
25045;SDS011;13044;49.304;12.840;2024-03-08T06:46:17;51.83;;;28.52;;
25045;SDS011;13044;49.304;12.840;2024-03-08T06:48:46;58.65;;;29.85;;
25045;SDS011;13044;49.304;12.840;2024-03-08T06:51:13;51.45;;;27.55;;
25045;SDS011;13044;49.304;12.840;2024-03-08T06:53:41;47.83;;;25.83;;
25045;SDS011;13044;49.304;12.840;2024-03-08T06:56:08;54.13;;;29.00;;
25045;SDS011;13044;49.304;12.840;2024-03-08T06:58:35;50.60;;;27.60;;
25045;SDS011;13044;49.304;12.840;2024-03-08T07:01:03;50.08;;;26.63;;
25045;SDS011;13044;49.304;12.840;2024-03-08T07:03:33;49.08;;;27.13;;
25045;SDS011;13044;49.304;12.840;2024-03-08T07:06:00;49.03;;;26.17;;
25045;SDS011;13044;49.304;12.840;2024-03-08T07:08:34;50.65;;;26.58;;
25045;SDS011;13044;49.304;12.840;2024-03-08T07:11:01;48.85;;;26.40;;
25045;SDS011;13044;49.304;12.840;2024-03-08T07:13:28;45.83;;;25.48;;
25045;SDS011;13044;49.304;12.840;2024-03-08T07:15:55;48.10;;;27.10;;
25045;SDS011;13044;49.304;12.840;2024-03-08T07:18:23;45.40;;;25.10;;
25045;SDS011;13044;49.304;12.840;2024-03-08T07:20:50;49.92;;;25.67;;
25045;SDS011;13044;49.304;12.840;2024-03-08T07:23:17;48.55;;;26.90;;
25045;SDS011;13044;49.304;12.840;2024-03-08T07:26:03;51.92;;;27.17;;
25045;SDS011;13044;49.304;12.840;2024-03-08T07:28:30;50.80;;;27.00;;
25045;SDS011;13044;49.304;12.840;2024-03-08T07:30:58;49.97;;;26.38;;
25045;SDS011;13044;49.304;12.840;2024-03-08T07:33:49;45.95;;;24.95;;
25045;SDS011;13044;49.304;12.840;2024-03-08T07:36:17;53.10;;;28.00;;
25045;SDS011;13044;49.304;12.840;2024-03-08T07:38:44;50.47;;;27.25;;
25045;SDS011;13044;49.304;12.840;2024-03-08T07:41:13;50.00;;;26.60;;
25045;SDS011;13044;49.304;12.840;2024-03-08T07:43:42;47.30;;;26.42;;
25045;SDS011;13044;49.304;12.840;2024-03-08T07:46:09;49.40;;;25.95;;
25045;SDS011;13044;49.304;12.840;2024-03-08T07:48:36;50.00;;;27.08;;
25045;SDS011;13044;49.304;12.840;2024-03-08T07:51:04;49.38;;;25.42;;
25045;SDS011;13044;49.304;12.840;2024-03-08T07:53:31;48.85;;;25.25;;
25045;SDS011;13044;49.304;12.840;2024-03-08T07:55:58;47.55;;;24.83;;
25045;SDS011;13044;49.304;12.840;2024-03-08T07:58:26;50.03;;;26.67;;
25045;SDS011;13044;49.304;12.840;2024-03-08T08:00:53;45.20;;;25.02;;
25045;SDS011;13044;49.304;12.840;2024-03-08T08:03:21;42.83;;;25.08;;
25045;SDS011;13044;49.304;12.840;2024-03-08T08:05:48;45.63;;;24.60;;
25045;SDS011;13044;49.304;12.840;2024-03-08T08:08:15;42.05;;;22.45;;
25045;SDS011;13044;49.304;12.840;2024-03-08T08:10:42;42.58;;;23.70;;
25045;SDS011;13044;49.304;12.840;2024-03-08T08:13:09;40.25;;;22.83;;
25045;SDS011;13044;49.304;12.840;2024-03-08T08:15:36;42.75;;;23.80;;
25045;SDS011;13044;49.304;12.840;2024-03-08T08:18:03;39.65;;;22.25;;
25045;SDS011;13044;49.304;12.840;2024-03-08T08:20:31;35.83;;;21.73;;
25045;SDS011;13044;49.304;12.840;2024-03-08T08:22:58;35.58;;;21.67;;
25045;SDS011;13044;49.304;12.840;2024-03-08T08:25:25;37.85;;;20.83;;
25045;SDS011;13044;49.304;12.840;2024-03-08T08:27:52;37.92;;;21.88;;
25045;SDS011;13044;49.304;12.840;2024-03-08T08:30:20;34.60;;;20.77;;
25045;SDS011;13044;49.304;12.840;2024-03-08T08:32:47;38.22;;;21.70;;
25045;SDS011;13044;49.304;12.840;2024-03-08T08:35:15;40.28;;;22.83;;
25045;SDS011;13044;49.304;12.840;2024-03-08T08:37:42;35.85;;;21.55;;
25045;SDS011;13044;49.304;12.840;2024-03-08T08:40:11;33.63;;;20.33;;
25045;SDS011;13044;49.304;12.840;2024-03-08T08:42:42;35.63;;;21.33;;
25045;SDS011;13044;49.304;12.840;2024-03-08T08:45:09;33.88;;;21.38;;
25045;SDS011;13044;49.304;12.840;2024-03-08T08:47:46;33.63;;;20.30;;
25045;SDS011;13044;49.304;12.840;2024-03-08T08:50:13;36.13;;;20.33;;
25045;SDS011;13044;49.304;12.840;2024-03-08T08:52:40;32.63;;;19.85;;
25045;SDS011;13044;49.304;12.840;2024-03-08T08:55:10;34.05;;;20.65;;
25045;SDS011;13044;49.304;12.840;2024-03-08T08:57:41;35.72;;;20.88;;
25045;SDS011;13044;49.304;12.840;2024-03-08T09:00:08;33.97;;;20.40;;
25045;SDS011;13044;49.304;12.840;2024-03-08T09:02:41;37.60;;;20.38;;
25045;SDS011;13044;49.304;12.840;2024-03-08T09:05:08;33.30;;;20.20;;
25045;SDS011;13044;49.304;12.840;2024-03-08T09:07:36;33.97;;;19.75;;
25045;SDS011;13044;49.304;12.840;2024-03-08T09:10:04;33.63;;;19.98;;
25045;SDS011;13044;49.304;12.840;2024-03-08T09:12:34;32.45;;;19.60;;
25045;SDS011;13044;49.304;12.840;2024-03-08T09:15:01;30.95;;;20.05;;
25045;SDS011;13044;49.304;12.840;2024-03-08T09:17:28;32.50;;;18.92;;
25045;SDS011;13044;49.304;12.840;2024-03-08T09:19:55;33.67;;;19.40;;
25045;SDS011;13044;49.304;12.840;2024-03-08T09:22:23;27.88;;;18.73;;
25045;SDS011;13044;49.304;12.840;2024-03-08T09:24:51;32.05;;;19.42;;
25045;SDS011;13044;49.304;12.840;2024-03-08T09:27:18;31.38;;;19.60;;
25045;SDS011;13044;49.304;12.840;2024-03-08T09:29:45;30.88;;;19.65;;
25045;SDS011;13044;49.304;12.840;2024-03-08T09:32:12;34.33;;;19.40;;
25045;SDS011;13044;49.304;12.840;2024-03-08T09:34:39;30.38;;;18.27;;
25045;SDS011;13044;49.304;12.840;2024-03-08T09:37:06;30.55;;;18.92;;
25045;SDS011;13044;49.304;12.840;2024-03-08T09:39:35;29.60;;;18.67;;
25045;SDS011;13044;49.304;12.840;2024-03-08T09:42:02;30.05;;;18.77;;
25045;SDS011;13044;49.304;12.840;2024-03-08T09:44:29;30.13;;;19.02;;
25045;SDS011;13044;49.304;12.840;2024-03-08T09:46:57;28.70;;;18.50;;
25045;SDS011;13044;49.304;12.840;2024-03-08T09:49:25;30.65;;;17.55;;
25045;SDS011;13044;49.304;12.840;2024-03-08T09:51:53;29.80;;;17.90;;
25045;SDS011;13044;49.304;12.840;2024-03-08T09:54:20;28.13;;;18.20;;
25045;SDS011;13044;49.304;12.840;2024-03-08T09:56:51;26.10;;;17.83;;
25045;SDS011;13044;49.304;12.840;2024-03-08T09:59:19;27.98;;;17.70;;
25045;SDS011;13044;49.304;12.840;2024-03-08T10:02:07;26.35;;;16.55;;
25045;SDS011;13044;49.304;12.840;2024-03-08T10:04:41;30.30;;;18.17;;
25045;SDS011;13044;49.304;12.840;2024-03-08T10:07:09;26.35;;;17.17;;
25045;SDS011;13044;49.304;12.840;2024-03-08T10:09:37;27.42;;;17.98;;
25045;SDS011;13044;49.304;12.840;2024-03-08T10:12:04;27.55;;;17.88;;
25045;SDS011;13044;49.304;12.840;2024-03-08T10:14:32;27.08;;;17.75;;
25045;SDS011;13044;49.304;12.840;2024-03-08T10:16:59;27.92;;;17.67;;
25045;SDS011;13044;49.304;12.840;2024-03-08T10:19:27;27.98;;;17.98;;
25045;SDS011;13044;49.304;12.840;2024-03-08T10:24:31;25.23;;;17.45;;
25045;SDS011;13044;49.304;12.840;2024-03-08T10:27:02;25.95;;;17.30;;
25045;SDS011;13044;49.304;12.840;2024-03-08T10:29:31;26.38;;;17.80;;
25045;SDS011;13044;49.304;12.840;2024-03-08T10:31:58;28.30;;;17.08;;
25045;SDS011;13044;49.304;12.840;2024-03-08T10:34:26;26.20;;;17.65;;
25045;SDS011;13044;49.304;12.840;2024-03-08T10:36:53;27.58;;;17.92;;
25045;SDS011;13044;49.304;12.840;2024-03-08T10:39:34;28.75;;;17.20;;
25045;SDS011;13044;49.304;12.840;2024-03-08T10:42:03;25.98;;;17.45;;
25045;SDS011;13044;49.304;12.840;2024-03-08T10:44:43;25.83;;;16.80;;
25045;SDS011;13044;49.304;12.840;2024-03-08T10:47:29;25.98;;;17.23;;
25045;SDS011;13044;49.304;12.840;2024-03-08T10:52:39;25.30;;;16.25;;
25045;SDS011;13044;49.304;12.840;2024-03-08T10:55:06;25.73;;;17.08;;
25045;SDS011;13044;49.304;12.840;2024-03-08T10:57:39;24.48;;;16.25;;
25045;SDS011;13044;49.304;12.840;2024-03-08T11:00:07;24.27;;;16.67;;
25045;SDS011;13044;49.304;12.840;2024-03-08T11:02:37;24.40;;;16.90;;
25045;SDS011;13044;49.304;12.840;2024-03-08T11:05:04;24.10;;;16.25;;
25045;SDS011;13044;49.304;12.840;2024-03-08T11:07:42;24.40;;;16.73;;
25045;SDS011;13044;49.304;12.840;2024-03-08T11:10:18;26.10;;;17.27;;
25045;SDS011;13044;49.304;12.840;2024-03-08T11:12:46;25.95;;;16.92;;
25045;SDS011;13044;49.304;12.840;2024-03-08T11:15:14;22.48;;;16.08;;
25045;SDS011;13044;49.304;12.840;2024-03-08T11:17:48;23.50;;;16.23;;
25045;SDS011;13044;49.304;12.840;2024-03-08T11:20:17;24.42;;;14.93;;
25045;SDS011;13044;49.304;12.840;2024-03-08T11:22:49;24.52;;;16.25;;
25045;SDS011;13044;49.304;12.840;2024-03-08T11:28:20;28.45;;;15.85;;
25045;SDS011;13044;49.304;12.840;2024-03-08T11:33:29;25.95;;;15.10;;
25045;SDS011;13044;49.304;12.840;2024-03-08T11:38:43;24.00;;;15.73;;
25045;SDS011;13044;49.304;12.840;2024-03-08T11:41:10;22.65;;;15.02;;
25045;SDS011;13044;49.304;12.840;2024-03-08T11:43:44;22.60;;;13.75;;
25045;SDS011;13044;49.304;12.840;2024-03-08T11:46:16;21.00;;;13.98;;
25045;SDS011;13044;49.304;12.840;2024-03-08T11:48:47;22.30;;;13.93;;
25045;SDS011;13044;49.304;12.840;2024-03-08T11:51:15;19.65;;;14.18;;
25045;SDS011;13044;49.304;12.840;2024-03-08T11:53:45;17.75;;;12.55;;
25045;SDS011;13044;49.304;12.840;2024-03-08T11:56:14;18.30;;;12.73;;
25045;SDS011;13044;49.304;12.840;2024-03-08T11:58:45;19.48;;;12.82;;
25045;SDS011;13044;49.304;12.840;2024-03-08T12:01:23;18.50;;;12.60;;
25045;SDS011;13044;49.304;12.840;2024-03-08T12:03:55;18.88;;;13.05;;
25045;SDS011;13044;49.304;12.840;2024-03-08T12:06:27;17.98;;;12.25;;
25045;SDS011;13044;49.304;12.840;2024-03-08T12:09:13;19.52;;;12.15;;
25045;SDS011;13044;49.304;12.840;2024-03-08T12:11:41;21.15;;;12.68;;
25045;SDS011;13044;49.304;12.840;2024-03-08T12:14:09;21.00;;;12.20;;
25045;SDS011;13044;49.304;12.840;2024-03-08T12:16:37;17.75;;;12.32;;
25045;SDS011;13044;49.304;12.840;2024-03-08T12:19:04;19.48;;;13.27;;
25045;SDS011;13044;49.304;12.840;2024-03-08T12:21:31;19.80;;;12.75;;
25045;SDS011;13044;49.304;12.840;2024-03-08T12:24:06;17.48;;;12.02;;
25045;SDS011;13044;49.304;12.840;2024-03-08T12:26:36;16.80;;;12.20;;
25045;SDS011;13044;49.304;12.840;2024-03-08T12:31:54;20.52;;;13.07;;
25045;SDS011;13044;49.304;12.840;2024-03-08T12:34:25;19.08;;;12.25;;
25045;SDS011;13044;49.304;12.840;2024-03-08T12:36:54;21.13;;;12.57;;
25045;SDS011;13044;49.304;12.840;2024-03-08T12:39:22;16.77;;;12.20;;
25045;SDS011;13044;49.304;12.840;2024-03-08T12:41:56;16.98;;;12.43;;
25045;SDS011;13044;49.304;12.840;2024-03-08T12:44:23;19.75;;;12.23;;
25045;SDS011;13044;49.304;12.840;2024-03-08T12:46:51;18.38;;;13.20;;
25045;SDS011;13044;49.304;12.840;2024-03-08T12:49:20;17.67;;;12.32;;
25045;SDS011;13044;49.304;12.840;2024-03-08T12:51:51;16.80;;;12.35;;
25045;SDS011;13044;49.304;12.840;2024-03-08T12:54:19;17.40;;;12.85;;
25045;SDS011;13044;49.304;12.840;2024-03-08T12:56:52;18.27;;;13.57;;
25045;SDS011;13044;49.304;12.840;2024-03-08T12:59:22;18.38;;;13.50;;
25045;SDS011;13044;49.304;12.840;2024-03-08T13:01:50;21.40;;;13.38;;
25045;SDS011;13044;49.304;12.840;2024-03-08T13:04:19;17.77;;;12.75;;
25045;SDS011;13044;49.304;12.840;2024-03-08T13:06:47;21.35;;;13.70;;
25045;SDS011;13044;49.304;12.840;2024-03-08T13:09:20;19.00;;;13.45;;
25045;SDS011;13044;49.304;12.840;2024-03-08T13:11:48;24.75;;;13.90;;
25045;SDS011;13044;49.304;12.840;2024-03-08T13:14:15;18.45;;;13.13;;
25045;SDS011;13044;49.304;12.840;2024-03-08T13:16:42;16.77;;;12.68;;
25045;SDS011;13044;49.304;12.840;2024-03-08T13:19:14;20.42;;;13.35;;
25045;SDS011;13044;49.304;12.840;2024-03-08T13:21:41;17.38;;;12.90;;
25045;SDS011;13044;49.304;12.840;2024-03-08T13:24:09;18.48;;;13.43;;
25045;SDS011;13044;49.304;12.840;2024-03-08T13:26:36;19.65;;;13.55;;
25045;SDS011;13044;49.304;12.840;2024-03-08T13:29:04;20.98;;;13.88;;
25045;SDS011;13044;49.304;12.840;2024-03-08T13:31:32;19.35;;;13.88;;
25045;SDS011;13044;49.304;12.840;2024-03-08T13:34:00;19.75;;;13.52;;
25045;SDS011;13044;49.304;12.840;2024-03-08T13:36:27;20.50;;;13.93;;
25045;SDS011;13044;49.304;12.840;2024-03-08T13:39:05;18.67;;;13.10;;
25045;SDS011;13044;49.304;12.840;2024-03-08T13:41:41;20.58;;;13.65;;
25045;SDS011;13044;49.304;12.840;2024-03-08T13:44:09;18.33;;;12.98;;
25045;SDS011;13044;49.304;12.840;2024-03-08T13:46:36;19.98;;;13.85;;
25045;SDS011;13044;49.304;12.840;2024-03-08T13:49:04;18.25;;;12.60;;
25045;SDS011;13044;49.304;12.840;2024-03-08T13:51:34;20.88;;;13.05;;
25045;SDS011;13044;49.304;12.840;2024-03-08T13:54:03;19.60;;;12.52;;
25045;SDS011;13044;49.304;12.840;2024-03-08T13:56:33;21.73;;;13.13;;
25045;SDS011;13044;49.304;12.840;2024-03-08T13:59:00;18.92;;;12.70;;
25045;SDS011;13044;49.304;12.840;2024-03-08T14:01:28;19.15;;;12.63;;
25045;SDS011;13044;49.304;12.840;2024-03-08T14:03:56;19.15;;;13.30;;
25045;SDS011;13044;49.304;12.840;2024-03-08T14:06:23;24.00;;;13.13;;
25045;SDS011;13044;49.304;12.840;2024-03-08T14:08:56;18.25;;;12.75;;
25045;SDS011;13044;49.304;12.840;2024-03-08T14:11:24;17.65;;;12.75;;
25045;SDS011;13044;49.304;12.840;2024-03-08T14:13:52;19.52;;;13.80;;
25045;SDS011;13044;49.304;12.840;2024-03-08T14:16:20;18.17;;;13.23;;
25045;SDS011;13044;49.304;12.840;2024-03-08T14:18:47;20.45;;;13.55;;
25045;SDS011;13044;49.304;12.840;2024-03-08T14:21:14;18.20;;;13.23;;
25045;SDS011;13044;49.304;12.840;2024-03-08T14:23:41;19.58;;;13.80;;
25045;SDS011;13044;49.304;12.840;2024-03-08T14:26:09;18.17;;;12.88;;
25045;SDS011;13044;49.304;12.840;2024-03-08T14:28:36;25.13;;;13.35;;
25045;SDS011;13044;49.304;12.840;2024-03-08T14:31:05;17.30;;;12.63;;
25045;SDS011;13044;49.304;12.840;2024-03-08T14:33:37;21.98;;;12.77;;
25045;SDS011;13044;49.304;12.840;2024-03-08T14:36:03;18.42;;;12.02;;